Time;durP1;ratioP1;P1;durP2;ratioP2;P2;SDS_P1;SDS_P2;PMS_P1;PMS_P2;Temp;Humidity;BMP_temperature;BMP_pressure;BME280_temperature;BME280_humidity;BME280_pressure;Samples;Min_cycle;Max_cycle;Signal;HPM_P1;HPM_P2
2022/11/07 00:01:48;;;;;;;4.63;3.45;;;;;;;9.90;nan;100339.69;5047855;28;20524;-87
2022/11/07 00:04:14;;;;;;;4.63;3.38;;;;;;;9.93;nan;100336.72;5060825;28;20039;-85
2022/11/07 00:06:40;;;;;;;4.85;2.90;;;;;;;9.92;nan;100334.25;5070839;28;20032;-85
2022/11/07 00:09:05;;;;;;;6.20;3.30;;;;;;;9.94;nan;100341.03;5053114;28;20037;-86
2022/11/07 00:11:31;;;;;;;4.88;3.05;;;;;;;9.97;nan;100350.47;5063355;28;20034;-86
2022/11/07 00:13:56;;;;;;;4.45;2.85;;;;;;;9.93;nan;100344.66;5065550;28;20041;-86
2022/11/07 00:16:21;;;;;;;4.28;2.55;;;;;;;9.95;nan;100337.41;5065612;28;20036;-86
2022/11/07 00:18:47;;;;;;;4.72;3.35;;;;;;;9.97;nan;100334.63;5054083;28;20584;-86
2022/11/07 00:21:12;;;;;;;4.10;2.90;;;;;;;9.98;nan;100347.66;5053496;28;20097;-86
2022/11/07 00:23:41;;;;;;;6.40;3.25;;;;;;;10.02;nan;100350.00;5060314;28;20116;-87
2022/11/07 00:26:09;;;;;;;3.88;2.75;;;;;;;9.99;nan;100340.59;5060360;28;20049;-86
2022/11/07 00:28:36;;;;;;;4.68;2.80;;;;;;;10.01;nan;100338.63;5051972;28;20477;-86
2022/11/07 00:31:02;;;;;;;4.70;2.80;;;;;;;10.00;nan;100343.06;5060926;28;20036;-85
2022/11/07 00:33:27;;;;;;;5.20;3.00;;;;;;;9.98;nan;100337.09;5057301;28;20043;-85
2022/11/07 00:35:52;;;;;;;4.47;2.95;;;;;;;10.06;nan;100343.41;5078779;28;20029;-86
2022/11/07 00:38:17;;;;;;;4.47;2.83;;;;;;;10.06;nan;100352.19;5051877;28;20032;-86
2022/11/07 00:40:52;;;;;;;4.65;2.88;;;;;;;10.05;nan;100350.53;5052601;28;20029;-85
2022/11/07 00:43:18;;;;;;;2.90;2.15;;;;;;;10.09;nan;100348.41;5061208;28;20036;-85
2022/11/07 00:45:43;;;;;;;4.80;2.70;;;;;;;10.12;nan;100351.56;5057611;28;20074;-86
2022/11/07 00:48:08;;;;;;;3.20;2.47;;;;;;;10.10;nan;100358.81;5082309;28;20286;-85
2022/11/07 00:50:33;;;;;;;3.15;2.28;;;;;;;10.14;nan;100356.72;5078267;28;20107;-85
2022/11/07 00:52:59;;;;;;;4.90;2.80;;;;;;;10.18;nan;100358.91;5073455;28;20039;-86
2022/11/07 00:55:24;;;;;;;5.25;2.60;;;;;;;10.19;nan;100357.06;5064842;28;20275;-85
2022/11/07 00:57:49;;;;;;;3.80;2.60;;;;;;;10.17;nan;100359.03;5060166;28;20032;-86
2022/11/07 01:00:14;;;;;;;3.92;2.55;;;;;;;10.21;nan;100376.25;5081494;28;20083;-85
2022/11/07 01:02:40;;;;;;;4.65;2.40;;;;;;;10.24;nan;100367.19;5073020;28;20039;-85
2022/11/07 01:05:11;;;;;;;5.63;2.55;;;;;;;10.25;nan;100368.84;5063897;28;20032;-85
2022/11/07 01:07:38;;;;;;;4.72;2.60;;;;;;;10.26;nan;100367.88;5063214;28;20497;-86
2022/11/07 01:10:05;;;;;;;3.78;2.30;;;;;;;10.28;nan;100376.47;5055953;28;20037;-87
2022/11/07 01:12:34;;;;;;;5.63;2.63;;;;;;;10.28;nan;100384.41;5053994;28;20119;-85
2022/11/07 01:15:00;;;;;;;4.60;2.38;;;;;;;10.30;nan;100380.66;5072242;28;20501;-86
2022/11/07 01:17:26;;;;;;;4.45;2.42;;;;;;;10.31;nan;100382.31;5054402;28;20056;-85
2022/11/07 01:19:51;;;;;;;3.17;2.40;;;;;;;10.31;nan;100384.94;5054920;28;20492;-85
2022/11/07 01:22:16;;;;;;;3.80;2.15;;;;;;;10.31;nan;100382.31;5046910;28;20116;-86
2022/11/07 01:24:41;;;;;;;3.45;2.10;;;;;;;10.30;nan;100382.47;5077605;28;20055;-85
2022/11/07 01:27:07;;;;;;;2.70;2.00;;;;;;;10.32;nan;100380.47;5071204;28;20143;-86
2022/11/07 01:29:32;;;;;;;3.53;2.30;;;;;;;10.35;nan;100377.56;5069710;28;20041;-85
2022/11/07 01:31:57;;;;;;;3.03;2.20;;;;;;;10.32;nan;100372.56;5073393;28;20036;-85
2022/11/07 01:34:23;;;;;;;4.05;2.45;;;;;;;10.36;nan;100376.56;5061020;28;20400;-86
2022/11/07 01:36:48;;;;;;;3.83;2.42;;;;;;;10.37;nan;100376.41;5074500;28;20041;-85
2022/11/07 01:39:13;;;;;;;4.57;2.50;;;;;;;10.36;nan;100372.09;5075944;28;20032;-86
2022/11/07 01:41:39;;;;;;;3.72;2.40;;;;;;;10.36;nan;100366.81;5058741;28;20032;-86
2022/11/07 01:44:07;;;;;;;4.18;2.28;;;;;;;10.41;nan;100376.94;5056571;28;20391;-85
2022/11/07 01:46:41;;;;;;;3.08;2.13;;;;;;;10.43;nan;100379.44;5064476;28;20058;-86
2022/11/07 01:49:21;;;;;;;3.85;2.38;;;;;;;10.43;nan;100379.44;5068834;28;20033;-85
2022/11/07 01:51:46;;;;;;;4.55;2.30;;;;;;;10.44;nan;100376.63;5060901;28;20024;-86
2022/11/07 01:54:14;;;;;;;4.77;2.67;;;;;;;10.46;nan;100384.38;5058815;28;20132;-86
2022/11/07 01:56:42;;;;;;;3.25;2.28;;;;;;;10.43;nan;100377.59;5056354;28;20032;-85
2022/11/07 01:59:10;;;;;;;4.60;2.50;;;;;;;10.44;nan;100379.28;5069838;28;20170;-85
2022/11/07 02:01:35;;;;;;;4.50;2.55;;;;;;;10.44;nan;100386.34;5054532;28;20111;-85
2022/11/07 02:04:02;;;;;;;3.95;2.63;;;;;;;10.42;nan;100378.59;5045447;28;20619;-86
2022/11/07 02:06:38;;;;;;;3.83;2.42;;;;;;;10.47;nan;100381.59;5055399;28;20501;-87
2022/11/07 02:09:03;;;;;;;3.28;2.40;;;;;;;10.45;nan;100380.94;5068771;28;20041;-85
2022/11/07 02:11:29;;;;;;;4.68;2.50;;;;;;;10.45;nan;100367.72;5054772;28;20091;-85
2022/11/07 02:13:54;;;;;;;4.45;2.80;;;;;;;10.43;nan;100384.72;5067443;28;20036;-85
2022/11/07 02:16:19;;;;;;;4.32;2.80;;;;;;;10.47;nan;100380.78;5071618;28;20040;-86
2022/11/07 02:18:45;;;;;;;3.55;2.28;;;;;;;10.46;nan;100384.38;5071132;28;20106;-86
2022/11/07 02:21:37;;;;;;;3.97;2.90;;;;;;;10.46;nan;100379.94;5051026;28;20206;-88
2022/11/07 02:24:05;;;;;;;;;;;;;;;10.48;nan;100374.50;5070723;28;20040;-86
2022/11/07 02:26:31;;;;;;;3.78;2.45;;;;;;;10.47;nan;100381.59;5051244;28;20023;-86
2022/11/07 02:28:58;;;;;;;4.65;2.72;;;;;;;10.47;nan;100368.38;5056225;28;20040;-85
2022/11/07 02:31:23;;;;;;;3.97;2.22;;;;;;;10.51;nan;100371.53;5065039;28;20167;-85
2022/11/07 02:33:49;;;;;;;3.88;2.67;;;;;;;10.52;nan;100373.22;5056803;28;20071;-85
2022/11/07 02:36:18;;;;;;;3.20;2.22;;;;;;;10.52;nan;100381.16;5074339;28;20067;-85
2022/11/07 02:38:47;;;;;;;5.47;2.35;;;;;;;10.55;nan;100372.91;5062984;28;20566;-86
2022/11/07 02:41:17;;;;;;;3.97;2.20;;;;;;;10.55;nan;100368.44;5053444;28;20044;-85
2022/11/07 02:43:48;;;;;;;3.65;2.42;;;;;;;10.56;nan;100370.09;5065142;28;20024;-85
2022/11/07 02:46:14;;;;;;;;;;;;;;;10.53;nan;100366.94;5074747;28;20040;-87
2022/11/07 02:48:42;;;;;;;3.10;2.25;;;;;;;10.47;nan;100359.63;5060107;28;19991;-86
2022/11/07 02:51:08;;;;;;;4.75;2.47;;;;;;;10.34;nan;100358.19;5061804;28;20043;-85
2022/11/07 02:53:33;;;;;;;3.50;2.45;;;;;;;10.24;nan;100351.34;5058922;28;20036;-86
2022/11/07 02:55:58;;;;;;;3.90;2.50;;;;;;;10.18;nan;100364.19;5067165;28;20024;-85
2022/11/07 02:58:23;;;;;;;5.70;2.70;;;;;;;10.11;nan;100355.22;5082871;28;20124;-87
2022/11/07 03:00:49;;;;;;;5.22;2.50;;;;;;;10.06;nan;100362.78;5060370;28;20028;-85
2022/11/07 03:03:14;;;;;;;5.00;2.92;;;;;;;10.02;nan;100365.88;5073709;28;20032;-87
2022/11/07 03:05:39;;;;;;;4.32;2.30;;;;;;;9.96;nan;100357.56;5079430;28;20068;-86
2022/11/07 03:08:04;;;;;;;3.72;2.25;;;;;;;9.96;nan;100356.72;5061248;28;20028;-86
2022/11/07 03:10:30;;;;;;;3.72;2.30;;;;;;;10.02;nan;100363.22;5060606;28;20037;-86
2022/11/07 03:12:55;;;;;;;5.07;2.63;;;;;;;10.05;nan;100362.91;5077059;28;20047;-86
2022/11/07 03:15:20;;;;;;;3.65;2.20;;;;;;;10.09;nan;100365.09;5056446;28;20039;-87
2022/11/07 03:17:46;;;;;;;5.65;2.88;;;;;;;10.14;nan;100362.00;5051213;28;20039;-86
2022/11/07 03:20:11;;;;;;;4.75;2.30;;;;;;;10.21;nan;100366.50;5060894;28;20039;-86
2022/11/07 03:22:37;;;;;;;4.72;2.53;;;;;;;10.30;nan;100362.16;5048978;28;20059;-86
2022/11/07 03:25:03;;;;;;;3.70;2.35;;;;;;;10.30;nan;100377.19;5043677;28;20040;-86
2022/11/07 03:27:29;;;;;;;3.78;2.22;;;;;;;10.28;nan;100363.25;5063492;28;20031;-86
2022/11/07 03:29:54;;;;;;;4.93;2.33;;;;;;;10.39;nan;100368.31;5077121;28;20048;-85
2022/11/07 03:32:19;;;;;;;4.43;2.20;;;;;;;10.49;nan;100369.06;5050915;28;20103;-86
2022/11/07 03:34:44;;;;;;;6.18;2.40;;;;;;;10.56;nan;100375.41;5051709;28;20078;-86
2022/11/07 03:37:10;;;;;;;3.85;2.30;;;;;;;10.62;nan;100380.03;5047305;28;20040;-87
2022/11/07 03:39:35;;;;;;;6.15;2.42;;;;;;;10.68;nan;100383.91;5046317;28;20040;-87
2022/11/07 03:42:00;;;;;;;3.83;1.95;;;;;;;10.69;nan;100377.59;5052421;28;20028;-87
2022/11/07 03:44:25;;;;;;;4.88;2.60;;;;;;;10.70;nan;100370.50;5045433;28;20461;-86
2022/11/07 03:46:51;;;;;;;4.53;2.40;;;;;;;10.72;nan;100374.66;5061266;28;20078;-88
2022/11/07 03:49:16;;;;;;;2.58;1.88;;;;;;;10.74;nan;100385.91;5075819;28;20409;-85
2022/11/07 03:51:41;;;;;;;3.93;2.20;;;;;;;10.72;nan;100389.69;5051832;28;20296;-86
2022/11/07 03:54:06;;;;;;;4.30;2.38;;;;;;;10.71;nan;100388.88;5072351;28;20385;-86
2022/11/07 03:56:32;;;;;;;4.18;2.13;;;;;;;10.71;nan;100388.88;5070495;28;20581;-85
2022/11/07 03:58:57;;;;;;;6.32;2.20;;;;;;;10.75;nan;100394.66;5057844;28;20444;-85
2022/11/07 04:01:22;;;;;;;6.97;2.25;;;;;;;10.73;nan;100391.38;5060978;28;20032;-85
2022/11/07 04:03:47;;;;;;;4.13;2.30;;;;;;;10.74;nan;100398.31;5056604;28;20062;-85
2022/11/07 04:06:13;;;;;;;4.47;2.10;;;;;;;10.77;nan;100406.78;5053052;28;20041;-85
2022/11/07 04:08:38;;;;;;;4.15;2.10;;;;;;;10.79;nan;100407.41;5067896;28;20028;-87
2022/11/07 04:11:03;;;;;;;5.38;2.28;;;;;;;10.77;nan;100405.91;5054868;28;20100;-86
2022/11/07 04:18:58;;;;;;;4.97;2.38;;;;;;;10.85;nan;100411.28;5064196;28;20090;-86
2022/11/07 04:21:23;;;;;;;5.45;1.98;;;;;;;10.83;nan;100421.19;5060074;28;20041;-86
2022/11/07 04:23:48;;;;;;;3.05;2.03;;;;;;;10.87;nan;100421.69;5075368;28;20021;-86
2022/11/07 04:28:57;;;;;;;3.80;2.28;;;;;;;10.86;nan;100418.22;5074229;28;20066;-85
2022/11/07 04:31:23;;;;;;;3.28;2.35;;;;;;;10.88;nan;100421.53;5081855;28;20037;-86
2022/11/07 04:33:48;;;;;;;5.90;2.35;;;;;;;10.89;nan;100430.28;5071086;28;20116;-86
2022/11/07 04:36:13;;;;;;;3.47;2.20;;;;;;;10.89;nan;100428.47;5062516;28;20047;-86
2022/11/07 04:38:39;;;;;;;4.55;1.90;;;;;;;10.90;nan;100418.75;5053447;28;20587;-85
2022/11/07 04:41:04;;;;;;;6.47;2.33;;;;;;;10.89;nan;100422.34;5073779;28;20033;-86
2022/11/07 04:43:29;;;;;;;5.13;1.90;;;;;;;10.86;nan;100420.84;5065708;28;20471;-85
2022/11/07 04:45:55;;;;;;;4.85;1.90;;;;;;;10.88;nan;100423.34;5078849;28;20025;-86
2022/11/07 04:48:20;;;;;;;3.55;2.00;;;;;;;10.92;nan;100424.72;5074354;28;20056;-86
2022/11/07 04:50:46;;;;;;;3.88;2.03;;;;;;;10.95;nan;100422.56;5063615;28;20047;-85
2022/11/07 04:53:13;;;;;;;3.63;1.73;;;;;;;10.97;nan;100428.53;5054738;28;20090;-85
2022/11/07 04:55:38;;;;;;;4.93;2.30;;;;;;;10.96;nan;100426.03;5054084;28;20049;-87
2022/11/07 04:58:03;;;;;;;4.47;2.00;;;;;;;10.96;nan;100420.75;5062970;28;20421;-86
2022/11/07 05:00:29;;;;;;;4.00;1.70;;;;;;;10.94;nan;100418.28;5058028;28;20032;-86
2022/11/07 05:02:55;;;;;;;3.70;2.10;;;;;;;10.95;nan;100427.84;5059747;28;20025;-86
2022/11/07 05:05:20;;;;;;;7.18;2.17;;;;;;;10.98;nan;100421.41;5077281;28;20101;-86
2022/11/07 05:07:46;;;;;;;4.75;1.90;;;;;;;10.99;nan;100423.91;5066192;28;20604;-86
2022/11/07 05:10:21;;;;;;;4.30;2.00;;;;;;;10.98;nan;100421.41;5067038;28;20052;-86
2022/11/07 05:12:46;;;;;;;4.00;2.15;;;;;;;10.96;nan;100421.56;5075365;28;20066;-86
2022/11/07 05:15:12;;;;;;;3.63;2.10;;;;;;;10.96;nan;100413.63;5066369;28;20695;-86
2022/11/07 05:17:38;;;;;;;5.95;2.08;;;;;;;10.96;nan;100421.56;5055787;28;20043;-86
2022/11/07 05:20:04;;;;;;;5.20;2.20;;;;;;;10.98;nan;100413.47;5058150;28;20469;-86
2022/11/07 05:25:13;;;;;;;4.38;1.98;;;;;;;10.99;nan;100421.28;5085719;28;20515;-86
2022/11/07 05:27:38;;;;;;;4.57;1.92;;;;;;;10.95;nan;100421.75;5052239;28;20044;-86
2022/11/07 05:30:05;;;;;;;3.23;1.83;;;;;;;10.95;nan;100419.91;5071499;28;20070;-86
2022/11/07 05:32:33;;;;;;;4.25;1.83;;;;;;;10.94;nan;100423.56;5078979;28;20278;-86
2022/11/07 05:34:58;;;;;;;4.45;2.00;;;;;;;10.95;nan;100427.03;5057562;28;20028;-86
2022/11/07 05:37:24;;;;;;;2.85;1.80;;;;;;;10.97;nan;100423.25;5074209;28;20062;-86
2022/11/07 05:39:49;;;;;;;3.13;1.70;;;;;;;11.00;nan;100428.22;5067314;28;20078;-86
2022/11/07 05:42:14;;;;;;;4.30;1.92;;;;;;;11.00;nan;100430.03;5065040;28;20103;-86
2022/11/07 05:44:39;;;;;;;5.95;2.05;;;;;;;11.01;nan;100426.38;5054951;28;20100;-85
2022/11/07 05:47:05;;;;;;;4.55;2.10;;;;;;;11.04;nan;100418.16;5058198;28;20096;-86
2022/11/07 05:49:30;;;;;;;5.13;1.90;;;;;;;11.04;nan;100431.38;5065741;28;20040;-85
2022/11/07 05:51:56;;;;;;;3.53;1.88;;;;;;;11.10;nan;100425.44;5067897;28;20040;-87
2022/11/07 05:54:23;;;;;;;5.28;2.00;;;;;;;11.11;nan;100421.84;5071875;28;20048;-87
2022/11/07 05:56:49;;;;;;;9.07;2.08;;;;;;;11.12;nan;100422.66;5066598;28;20060;-85
2022/11/07 05:59:14;;;;;;;4.85;1.85;;;;;;;11.14;nan;100416.22;5057595;28;20048;-86
2022/11/07 06:01:39;;;;;;;5.60;1.45;;;;;;;11.13;nan;100426.94;5076611;28;20035;-85
2022/11/07 06:04:06;;;;;;;4.55;1.85;;;;;;;11.17;nan;100425.66;5086114;28;20085;-84
2022/11/07 06:06:31;;;;;;;5.03;1.92;;;;;;;11.17;nan;100428.31;5052459;28;20036;-85
2022/11/07 06:08:57;;;;;;;5.32;1.70;;;;;;;11.18;nan;100433.44;5053678;28;20047;-84
2022/11/07 06:11:22;;;;;;;4.53;2.00;;;;;;;11.17;nan;100431.78;5056168;28;20075;-83
2022/11/07 06:13:48;;;;;;;6.55;1.67;;;;;;;11.17;nan;100429.13;5055562;28;20478;-85
2022/11/07 06:16:13;;;;;;;5.18;2.10;;;;;;;11.21;nan;100429.66;5070874;28;20053;-84
2022/11/07 06:18:38;;;;;;;4.18;1.83;;;;;;;11.21;nan;100425.19;5062413;28;20033;-86
2022/11/07 06:21:04;;;;;;;4.03;1.92;;;;;;;11.22;nan;100434.75;5056915;28;20124;-85
2022/11/07 06:23:29;;;;;;;5.75;2.00;;;;;;;11.22;nan;100436.59;5060692;28;20044;-85
2022/11/07 06:25:54;;;;;;;4.75;1.98;;;;;;;11.24;nan;100440.72;5073528;28;20031;-85
2022/11/07 06:28:19;;;;;;;3.50;1.50;;;;;;;11.27;nan;100442.22;5062195;28;20068;-85
2022/11/07 06:30:45;;;;;;;5.13;2.20;;;;;;;11.25;nan;100439.78;5065981;28;20032;-86
2022/11/07 06:33:15;;;;;;;4.88;1.80;;;;;;;11.27;nan;100440.44;5049742;28;20749;-86
2022/11/07 06:35:41;;;;;;;4.05;1.92;;;;;;;11.28;nan;100451.84;5047528;28;20028;-85
2022/11/07 06:38:09;;;;;;;5.85;1.80;;;;;;;11.30;nan;100447.22;5068144;28;20428;-85
2022/11/07 06:40:34;;;;;;;5.45;1.73;;;;;;;11.26;nan;100446.72;5048947;28;20131;-86
2022/11/07 06:43:16;;;;;;;3.70;1.92;;;;;;;11.36;nan;100453.69;5070884;28;20642;-86
2022/11/07 06:45:42;;;;;;;3.60;1.90;;;;;;;11.37;nan;100452.69;5059759;28;20121;-85
2022/11/07 06:48:08;;;;;;;5.65;1.90;;;;;;;11.32;nan;100444.41;5043664;28;20039;-86
2022/11/07 06:50:34;;;;;;;5.90;2.10;;;;;;;11.34;nan;100442.44;5070321;28;20119;-86
2022/11/07 06:53:11;;;;;;;3.72;1.83;;;;;;;11.34;nan;100453.03;5061258;28;20131;-86
2022/11/07 06:55:37;;;;;;;3.70;1.85;;;;;;;11.31;nan;100454.19;5076036;28;20024;-86
2022/11/07 06:58:03;;;;;;;4.35;1.70;;;;;;;11.26;nan;100461.75;5055890;28;20524;-86
2022/11/07 07:00:31;;;;;;;4.65;2.00;;;;;;;11.25;nan;100463.59;5071309;28;20127;-86
2022/11/07 07:02:56;;;;;;;5.13;2.22;;;;;;;11.27;nan;100474.84;5049922;28;20041;-86
2022/11/07 07:05:22;;;;;;;3.97;1.88;;;;;;;11.33;nan;100467.25;5055268;28;20393;-86
2022/11/07 07:07:47;;;;;;;6.38;2.03;;;;;;;11.35;nan;100473.22;5071396;28;20025;-85
2022/11/07 07:10:21;;;;;;;5.05;2.00;;;;;;;11.35;nan;100473.22;5069624;28;20039;-86
2022/11/07 07:12:46;;;;;;;5.40;1.90;;;;;;;11.38;nan;100470.25;5047533;28;20036;-86
2022/11/07 07:15:11;;;;;;;4.25;1.90;;;;;;;11.37;nan;100465.94;5065128;28;20066;-85
2022/11/07 07:17:37;;;;;;;5.25;1.75;;;;;;;11.37;nan;100471.22;5050574;28;20044;-85
2022/11/07 07:20:03;;;;;;;5.70;1.80;;;;;;;11.37;nan;100474.72;5051917;28;20056;-85
2022/11/07 07:22:29;;;;;;;5.68;2.10;;;;;;;11.36;nan;100477.53;5072061;28;20075;-86
2022/11/07 07:24:54;;;;;;;4.82;1.98;;;;;;;11.42;nan;100487.50;5070336;28;20130;-84
2022/11/07 07:27:19;;;;;;;7.27;2.30;;;;;;;11.41;nan;100483.19;5072103;28;20033;-85
2022/11/07 07:29:46;;;;;;;4.43;1.93;;;;;;;11.44;nan;100496.09;5055979;28;20316;-86
2022/11/07 07:32:11;;;;;;;5.15;2.10;;;;;;;11.48;nan;100497.44;5056155;28;20282;-86
2022/11/07 07:34:36;;;;;;;4.68;2.00;;;;;;;11.55;nan;100497.66;5055752;28;20024;-86
2022/11/07 07:37:02;;;;;;;6.63;2.05;;;;;;;11.61;nan;100502.31;5090176;22;20422;-66
2022/11/07 07:39:27;;;;;;;4.20;1.73;;;;;;;11.62;nan;100502.13;5066140;28;20040;-66
2022/11/07 07:41:52;;;;;;;5.70;1.95;;;;;;;11.67;nan;100499.84;5049758;28;20033;-66
2022/11/07 07:44:17;;;;;;;4.65;1.90;;;;;;;11.76;nan;100510.47;5062625;28;20036;-66
2022/11/07 07:46:43;;;;;;;3.92;1.80;;;;;;;11.83;nan;100516.81;5057971;28;20602;-67
2022/11/07 07:49:09;;;;;;;6.22;2.00;;;;;;;11.92;nan;100510.56;5060213;28;20059;-66
2022/11/07 07:51:34;;;;;;;5.70;2.13;;;;;;;12.01;nan;100508.75;5056962;28;20033;-66
2022/11/07 07:54:00;;;;;;;7.28;2.03;;;;;;;12.04;nan;100509.28;5061686;28;20037;-66
2022/11/07 07:56:26;;;;;;;5.90;2.00;;;;;;;12.12;nan;100508.47;5047904;28;20045;-67
2022/11/07 07:58:51;;;;;;;5.30;1.83;;;;;;;12.21;nan;100515.44;5054855;28;20040;-66
2022/11/07 08:01:16;;;;;;;3.80;1.77;;;;;;;12.32;nan;100516.94;5039549;28;20041;-66
2022/11/07 08:03:41;;;;;;;5.20;1.93;;;;;;;12.39;nan;100511.81;5048171;28;20675;-66
2022/11/07 08:06:09;;;;;;;6.13;2.00;;;;;;;12.46;nan;100518.94;5048021;28;20290;-67
2022/11/07 08:08:35;;;;;;;6.18;1.92;;;;;;;12.57;nan;100515.16;5046525;28;20279;-66
2022/11/07 08:11:06;;;;;;;4.40;1.63;;;;;;;12.70;nan;100519.97;5059675;28;20044;-66
2022/11/07 08:13:32;;;;;;;3.20;1.90;;;;;;;12.75;nan;100510.53;5048573;28;20029;-66
2022/11/07 08:16:00;;;;;;;4.78;1.80;;;;;;;12.78;nan;100509.38;5045361;28;20086;-66
2022/11/07 08:18:25;;;;;;;4.40;2.13;;;;;;;12.80;nan;100509.19;5056723;28;20460;-66
2022/11/07 08:20:52;;;;;;;5.32;2.10;;;;;;;12.81;nan;100513.50;5042772;28;20124;-66
2022/11/07 08:23:18;;;;;;;5.28;2.15;;;;;;;12.81;nan;100518.81;5049438;28;20041;-66
2022/11/07 08:25:55;;;;;;;5.40;1.70;;;;;;;12.85;nan;100509.53;5060960;28;20512;-66
2022/11/07 08:28:22;;;;;;;4.05;1.75;;;;;;;12.82;nan;100512.50;5049592;28;20037;-66
2022/11/07 08:31:20;;;;;;;4.53;1.85;;;;;;;12.74;nan;100503.53;5054075;28;20082;-66
2022/11/07 08:33:45;;;;;;;4.70;2.00;;;;;;;12.78;nan;100505.88;5000653;28;20146;-67
2022/11/07 08:36:10;;;;;;;7.38;2.15;;;;;;;12.73;nan;100509.03;5043627;28;20037;-67
2022/11/07 08:38:36;;;;;;;9.50;2.25;;;;;;;12.75;nan;100512.31;5048035;28;20029;-66
2022/11/07 08:41:02;;;;;;;6.45;2.22;;;;;;;12.84;nan;100518.47;5045277;28;20150;-66
2022/11/07 08:43:28;;;;;;;4.65;1.80;;;;;;;12.89;nan;100509.00;5047394;28;20036;-66
2022/11/07 08:45:54;;;;;;;6.55;1.88;;;;;;;12.99;nan;100511.50;5058171;28;20284;-66
2022/11/07 08:48:20;;;;;;;5.57;2.08;;;;;;;13.07;nan;100511.47;5067129;28;20044;-67
2022/11/07 08:50:50;;;;;;;10.52;2.25;;;;;;;13.13;nan;100521.44;5055587;28;20025;-66
2022/11/07 08:53:15;;;;;;;6.35;1.95;;;;;;;13.20;nan;100526.88;5066838;28;20032;-66
2022/11/07 08:55:41;;;;;;;5.10;1.70;;;;;;;13.21;nan;100528.56;5042577;28;20037;-66
2022/11/07 08:58:07;;;;;;;4.18;2.08;;;;;;;13.27;nan;100529.69;5047277;28;20271;-67
2022/11/07 09:00:33;;;;;;;3.97;2.08;;;;;;;13.25;nan;100519.25;5055696;28;20108;-66
2022/11/07 09:03:07;;;;;;;5.47;1.92;;;;;;;13.25;nan;100524.56;5051414;28;20071;-66
2022/11/07 09:05:32;;;;;;;4.00;1.73;;;;;;;13.30;nan;100527.56;5049229;28;20044;-66
2022/11/07 09:07:57;;;;;;;6.78;2.20;;;;;;;13.26;nan;100528.06;5056709;28;20500;-66
2022/11/07 09:10:23;;;;;;;5.47;2.20;;;;;;;13.31;nan;100520.44;5056912;28;20043;-67
2022/11/07 09:12:49;;;;;;;7.18;1.92;;;;;;;13.31;nan;100526.56;5048256;28;20029;-66
2022/11/07 09:15:16;;;;;;;5.95;2.13;;;;;;;13.33;nan;100532.53;5065601;28;20056;-66
2022/11/07 09:17:41;;;;;;;10.80;2.65;;;;;;;13.32;nan;100541.53;5052376;28;20029;-67
2022/11/07 09:20:08;;;;;;;7.00;1.90;;;;;;;13.36;nan;100542.00;5058749;28;20040;-67
2022/11/07 09:22:33;;;;;;;4.40;1.88;;;;;;;13.34;nan;100541.34;5069080;28;20048;-67
2022/11/07 09:24:58;;;;;;;8.63;2.00;;;;;;;13.32;nan;100540.66;5062643;28;20037;-66
2022/11/07 09:27:23;;;;;;;6.00;1.90;;;;;;;13.38;nan;100537.34;5067253;28;20048;-66
2022/11/07 09:29:49;;;;;;;3.40;1.80;;;;;;;13.39;nan;100528.38;5058032;28;20136;-66
2022/11/07 09:32:14;;;;;;;3.58;1.70;;;;;;;13.36;nan;100531.38;5050398;28;20087;-66
2022/11/07 09:34:39;;;;;;;7.30;2.15;;;;;;;13.31;nan;100526.56;5051535;28;20055;-66
2022/11/07 09:37:05;;;;;;;6.60;2.13;;;;;;;13.32;nan;100530.91;5059383;28;20040;-67
2022/11/07 09:39:30;;;;;;;3.70;1.60;;;;;;;13.34;nan;100538.69;5060204;28;20044;-66
2022/11/07 09:42:21;;;;;;;6.90;1.77;;;;;;;13.33;nan;100545.00;5057275;28;20311;-66
2022/11/07 09:44:54;;;;;;;;;;;;;;;13.25;nan;100542.31;5048941;28;20333;-66
2022/11/07 09:47:27;;;;;;;4.90;1.77;;;;;;;13.28;nan;100540.19;5066847;28;19970;-66
2022/11/07 09:50:00;;;;;;;7.13;1.73;;;;;;;13.27;nan;100549.13;5051372;28;20033;-66
2022/11/07 09:52:40;;;;;;;7.85;1.83;;;;;;;13.34;nan;100549.31;5068511;28;20276;-67
2022/11/07 09:55:26;;;;;;;7.23;1.93;;;;;;;13.32;nan;100545.97;5055174;28;20475;-66
2022/11/07 09:57:55;;;;;;;7.03;1.90;;;;;;;13.38;nan;100546.13;5043224;28;20032;-66
2022/11/07 10:00:21;;;;;;;6.55;1.73;;;;;;;13.53;nan;100548.09;5059524;28;20076;-67
2022/11/07 10:02:55;;;;;;;4.68;1.70;;;;;;;13.62;nan;100541.75;5051999;28;20839;-66
2022/11/07 10:05:37;;;;;;;7.57;1.92;;;;;;;13.71;nan;100545.22;5070414;28;20028;-66
2022/11/07 10:08:08;;;;;;;8.18;2.13;;;;;;;13.73;nan;100548.50;5063441;28;20036;-67
2022/11/07 10:10:48;;;;;;;7.47;1.90;;;;;;;13.74;nan;100553.66;5057153;28;20567;-66
2022/11/07 10:13:38;;;;;;;5.47;2.00;;;;;;;13.71;nan;100555.84;5067539;28;20511;-67
2022/11/07 10:16:19;;;;;;;4.53;1.90;;;;;;;13.63;nan;100553.22;5050341;28;20036;-67
2022/11/07 10:18:47;;;;;;;4.97;1.63;;;;;;;13.66;nan;100551.06;5063441;28;20025;-67
2022/11/07 10:21:24;;;;;;;10.40;2.17;;;;;;;13.71;nan;100558.50;5060163;28;20543;-67
2022/11/07 10:24:18;;;;;;;4.65;1.60;;;;;;;13.74;nan;100568.78;5058047;28;20083;-66
2022/11/07 10:26:44;;;;;;;4.80;1.70;;;;;;;13.75;nan;100558.00;5061984;28;20089;-66
2022/11/07 10:29:15;;;;;;;3.90;1.45;;;;;;;13.81;nan;100567.94;5050498;28;20033;-67
2022/11/07 10:31:55;;;;;;;3.42;1.60;;;;;;;13.94;nan;100572.72;5060985;28;20049;-67
2022/11/07 10:34:33;;;;;;;6.00;1.90;;;;;;;14.04;nan;100580.47;5049725;28;20032;-67
2022/11/07 10:36:58;;;;;;;5.22;1.88;;;;;;;14.14;nan;100569.63;5061419;28;20740;-67
2022/11/07 10:39:23;;;;;;;5.20;1.65;;;;;;;14.22;nan;100570.41;5049135;28;20056;-67
2022/11/07 10:42:02;;;;;;;6.88;2.47;;;;;;;14.31;nan;100565.88;5050582;28;20029;-66
2022/11/07 10:44:28;;;;;;;5.75;2.55;;;;;;;14.42;nan;100577.97;5054038;28;20033;-67
2022/11/07 10:46:54;;;;;;;8.32;1.80;;;;;;;14.47;nan;100570.28;5061489;28;20025;-66
2022/11/07 10:49:24;;;;;;;5.43;2.05;;;;;;;14.48;nan;100568.44;5060200;28;20501;-67
2022/11/07 10:51:50;;;;;;;5.05;1.88;;;;;;;14.48;nan;100566.59;5066650;28;20047;-66
2022/11/07 10:54:27;;;;;;;4.10;1.60;;;;;;;14.52;nan;100567.91;5051068;28;20033;-67
2022/11/07 10:57:08;;;;;;;4.78;1.70;;;;;;;14.65;nan;100562.84;5050287;28;20035;-67
2022/11/07 10:59:44;;;;;;;4.50;1.83;;;;;;;14.74;nan;100562.81;5056883;28;20032;-67
2022/11/07 11:02:21;;;;;;;4.85;1.90;;;;;;;14.75;nan;100559.94;5049124;28;20033;-67
2022/11/07 11:04:58;;;;;;;6.85;1.92;;;;;;;14.81;nan;100563.75;5062829;28;20511;-67
2022/11/07 11:07:31;;;;;;;5.03;1.48;;;;;;;14.77;nan;100559.78;5069729;28;20040;-67
2022/11/07 11:09:56;;;;;;;7.10;1.92;;;;;;;14.95;nan;100548.81;5069935;28;20064;-67
2022/11/07 11:12:29;;;;;;;5.20;1.65;;;;;;;15.02;nan;100555.09;5070000;28;20073;-67
2022/11/07 11:15:13;;;;;;;4.30;1.60;;;;;;;15.04;nan;100553.91;5069969;28;20031;-67
2022/11/07 11:17:39;;;;;;;4.32;1.55;;;;;;;15.08;nan;100557.00;5063697;28;20044;-67
2022/11/07 11:20:06;;;;;;;6.88;1.80;;;;;;;15.01;nan;100540.09;5065895;28;20035;-67
2022/11/07 11:22:40;;;;;;;3.47;1.60;;;;;;;14.94;nan;100539.97;5066078;28;20029;-67
2022/11/07 11:25:20;;;;;;;5.28;1.80;;;;;;;14.98;nan;100546.63;5058965;28;20233;-67
2022/11/07 11:27:48;;;;;;;5.35;1.50;;;;;;;14.94;nan;100526.66;5060688;28;20391;-67
2022/11/07 11:30:18;;;;;;;4.22;1.70;;;;;;;14.95;nan;100541.66;5052322;28;20041;-67
2022/11/07 11:33:10;;;;;;;4.10;1.63;;;;;;;14.82;nan;100533.44;5054686;28;20102;-67
2022/11/07 11:35:50;;;;;;;6.00;1.77;;;;;;;14.84;nan;100531.44;5058688;28;20071;-66
2022/11/07 11:38:36;;;;;;;5.60;1.73;;;;;;;14.97;nan;100530.81;5059094;28;20044;-67
2022/11/07 11:41:33;;;;;;;5.30;1.58;;;;;;;15.00;nan;100517.97;5049933;28;20116;-67
2022/11/07 11:44:11;;;;;;;9.63;1.90;;;;;;;15.14;nan;100512.88;5060711;28;20166;-67
2022/11/07 11:46:47;;;;;;;6.35;2.10;;;;;;;15.24;nan;100514.25;5048212;28;20089;-67
2022/11/07 11:49:23;;;;;;;4.65;1.55;;;;;;;15.21;nan;100508.47;5055910;28;20041;-67
2022/11/07 11:51:54;;;;;;;5.28;1.40;;;;;;;15.27;nan;100505.06;5061362;28;20037;-67
2022/11/07 11:54:20;;;;;;;6.80;1.63;;;;;;;15.17;nan;100500.00;5058133;28;20241;-67
2022/11/07 11:56:51;;;;;;;7.30;2.00;;;;;;;15.39;nan;100502.75;5063043;28;20558;-67
2022/11/07 11:59:45;;;;;;;6.53;1.57;;;;;;;15.53;nan;100503.78;5057267;28;20041;-67